Time;durP1;ratioP1;P1;durP2;ratioP2;P2;SDS_P1;SDS_P2;PMS_P1;PMS_P2;Temp;Humidity;BMP_temperature;BMP_pressure;BME280_temperature;BME280_humidity;BME280_pressure;Samples;Min_cycle;Max_cycle;Signal;HPM_P1;HPM_P2
2023/04/21 00:02:26;;;;;;;4.50;2.53;;;;;;;9.18;77.28;99130.00;5137656;28;20047;-70
2023/04/21 00:04:52;;;;;;;4.00;2.38;;;;;;;9.07;78.28;99124.28;5138034;27;20047;-66
2023/04/21 00:07:19;;;;;;;3.33;2.30;;;;;;;9.01;78.32;99114.78;5137556;28;20085;-64
2023/04/21 00:09:45;;;;;;;3.53;2.25;;;;;;;9.21;77.00;99118.34;5138001;27;20142;-71
2023/04/21 00:12:11;;;;;;;5.53;2.65;;;;;;;9.05;77.22;99110.16;5137707;27;20071;-67
2023/04/21 00:14:38;;;;;;;4.03;2.72;;;;;;;8.95;78.08;99116.19;5137646;28;20374;-66
2023/04/21 00:17:04;;;;;;;2.88;1.90;;;;;;;8.98;78.20;99118.22;5137635;28;20055;-68
2023/04/21 00:19:30;;;;;;;2.80;1.92;;;;;;;9.08;78.31;99119.59;5137594;28;20047;-69
2023/04/21 00:21:58;;;;;;;5.90;2.35;;;;;;;8.97;78.84;99119.38;5137244;27;20062;-70
2023/04/21 00:24:25;;;;;;;4.30;2.17;;;;;;;8.77;81.46;99112.25;5137419;28;20309;-64
2023/04/21 00:26:51;;;;;;;3.28;2.05;;;;;;;8.94;79.56;99111.88;5137541;28;20061;-71
2023/04/21 00:29:17;;;;;;;3.03;2.22;;;;;;;8.81;79.25;99110.38;5137342;27;20047;-71
2023/04/21 00:31:43;;;;;;;6.05;2.03;;;;;;;8.81;80.13;99102.19;5137711;27;20061;-70
2023/04/21 00:34:09;;;;;;;4.13;2.05;;;;;;;8.65;81.05;99104.91;5137164;28;20051;-67
2023/04/21 00:36:35;;;;;;;6.95;2.45;;;;;;;8.64;82.55;99098.66;5137522;27;20051;-71
2023/04/21 00:39:02;;;;;;;4.90;2.55;;;;;;;8.71;81.41;99101.56;5136990;28;20051;-69
2023/04/21 00:41:29;;;;;;;5.57;2.40;;;;;;;8.66;81.32;99109.22;5137019;28;20435;-68
2023/04/21 00:44:03;;;;;;;4.03;2.50;;;;;;;8.60;81.96;99094.28;5137349;28;20137;-69
2023/04/21 00:46:29;;;;;;;3.80;2.40;;;;;;;8.67;82.80;99088.97;5136979;28;20142;-65
2023/04/21 00:48:54;;;;;;;2.47;2.17;;;;;;;8.40;82.65;99096.13;5137139;28;20047;-64
2023/04/21 00:51:21;;;;;;;4.18;2.63;;;;;;;8.81;80.76;99093.97;5137173;28;20082;-65
2023/04/21 00:53:47;;;;;;;3.75;2.60;;;;;;;8.48;81.89;99087.72;5137330;28;20047;-71
2023/04/21 00:56:13;;;;;;;10.70;2.53;;;;;;;8.61;82.50;99088.44;5136942;28;20138;-65
2023/04/21 00:58:41;;;;;;;6.50;2.78;;;;;;;8.61;81.37;99095.84;5137285;28;20062;-71
2023/04/21 01:01:07;;;;;;;4.32;2.30;;;;;;;8.57;82.28;99095.75;5136907;28;20057;-69
2023/04/21 01:03:33;;;;;;;9.25;1.85;;;;;;;8.45;82.52;99087.66;5137354;28;20428;-71
2023/04/21 01:05:59;;;;;;;2.53;2.10;;;;;;;8.58;82.33;99088.34;5137004;27;20055;-67
2023/04/21 01:08:26;;;;;;;5.88;2.13;;;;;;;8.48;83.88;99085.00;5136887;28;20097;-70
2023/04/21 01:10:52;;;;;;;2.30;2.08;;;;;;;8.58;83.88;99083.69;5136895;28;20396;-66
2023/04/21 01:13:19;;;;;;;4.97;2.85;;;;;;;8.33;85.44;99083.03;5136807;28;20107;-64
2023/04/21 01:15:46;;;;;;;4.82;2.80;;;;;;;8.40;85.47;99085.19;5136672;28;20409;-64
2023/04/21 01:18:11;;;;;;;3.38;2.03;;;;;;;8.55;82.63;99087.13;5136807;27;20057;-67
2023/04/21 01:20:38;;;;;;;3.28;2.33;;;;;;;8.37;83.18;99074.94;5136891;27;20043;-65
2023/04/21 01:23:04;;;;;;;6.03;2.55;;;;;;;8.26;84.34;99077.38;5136585;28;20059;-71
2023/04/21 01:25:30;;;;;;;2.90;2.08;;;;;;;8.50;82.94;99084.66;5136834;27;20047;-71
2023/04/21 01:27:56;;;;;;;3.28;2.63;;;;;;;8.57;82.81;99086.78;5136580;28;20086;-67
2023/04/21 01:30:22;;;;;;;4.95;2.70;;;;;;;8.39;83.73;99092.56;5136586;28;20138;-65
2023/04/21 01:32:48;;;;;;;5.57;2.17;;;;;;;8.29;84.06;99070.44;5136440;27;20408;-63
2023/04/21 01:35:14;;;;;;;2.90;2.40;;;;;;;8.37;84.63;99075.72;5139784;27;20137;-68
2023/04/21 01:37:40;;;;;;;2.20;1.88;;;;;;;8.36;84.16;99074.13;5139761;28;20078;-71
2023/04/21 01:40:08;;;;;;;3.80;2.50;;;;;;;8.21;83.75;99066.72;5140081;28;20048;-65
2023/04/21 01:42:37;;;;;;;3.30;2.10;;;;;;;8.24;84.19;99066.81;5140145;28;20059;-71
2023/04/21 01:45:04;;;;;;;5.68;2.53;;;;;;;8.10;85.80;99062.94;5139984;28;20137;-64
2023/04/21 01:47:30;;;;;;;2.40;1.80;;;;;;;8.29;85.50;99075.88;5140063;28;20055;-64
2023/04/21 01:49:56;;;;;;;6.85;2.15;;;;;;;8.35;83.86;99074.47;5139830;28;20075;-67
2023/04/21 01:52:22;;;;;;;3.22;2.35;;;;;;;8.10;84.05;99066.47;5140022;27;20085;-67
2023/04/21 01:54:47;;;;;;;2.78;2.17;;;;;;;8.12;84.02;99066.09;5139713;28;20107;-70
2023/04/21 01:57:14;;;;;;;5.95;2.47;;;;;;;8.05;85.48;99068.66;5139916;27;20062;-70
2023/04/21 01:59:40;;;;;;;5.78;2.50;;;;;;;8.11;84.31;99072.72;5139546;28;20055;-70
2023/04/21 02:02:06;;;;;;;5.10;2.25;;;;;;;8.00;87.22;99067.75;5139971;27;20142;-65
2023/04/21 02:04:33;;;;;;;4.20;2.45;;;;;;;8.08;83.68;99067.94;5139411;27;20051;-69
2023/04/21 02:06:59;;;;;;;9.32;2.17;;;;;;;8.06;83.60;99079.19;5139317;27;20078;-65
2023/04/21 02:09:25;;;;;;;3.33;2.25;;;;;;;7.97;83.83;99060.28;5139402;28;20047;-69
2023/04/21 02:11:51;;;;;;;3.45;2.33;;;;;;;8.06;83.88;99057.34;5139556;28;20190;-71
2023/04/21 02:14:17;;;;;;;2.95;2.28;;;;;;;7.93;86.78;99061.31;5139335;27;20047;-66
2023/04/21 02:16:43;;;;;;;4.28;2.22;;;;;;;7.83;84.24;99061.81;5139370;28;20336;-67
2023/04/21 02:19:09;;;;;;;5.07;2.50;;;;;;;7.93;85.02;99053.13;5139439;27;20051;-64
2023/04/21 02:21:35;;;;;;;8.95;2.60;;;;;;;8.07;81.72;99061.69;5139123;28;20050;-64
2023/04/21 02:24:01;;;;;;;3.08;2.10;;;;;;;7.89;82.44;99052.22;5139482;28;20097;-65
2023/04/21 02:26:27;;;;;;;3.40;2.10;;;;;;;7.83;82.61;99062.63;5139197;28;20142;-67
2023/04/21 02:28:53;;;;;;;5.43;2.65;;;;;;;7.82;82.66;99062.97;5139559;28;20054;-71
2023/04/21 02:31:20;;;;;;;4.53;2.67;;;;;;;8.01;82.46;99061.16;5139030;28;20043;-70
2023/04/21 02:33:46;;;;;;;4.70;2.20;;;;;;;8.06;80.16;99076.47;5139498;28;20047;-69
2023/04/21 02:36:12;;;;;;;2.97;2.15;;;;;;;7.70;83.37;99058.38;5138794;27;20192;-67
2023/04/21 02:38:38;;;;;;;7.07;2.70;;;;;;;7.87;82.76;99065.44;5139204;28;20142;-64
2023/04/21 02:41:04;;;;;;;3.65;2.15;;;;;;;7.77;81.48;99061.28;5139273;28;20137;-65
2023/04/21 02:43:30;;;;;;;3.97;2.05;;;;;;;7.86;81.86;99059.19;5138837;28;20443;-67
2023/04/21 02:45:56;;;;;;;3.03;2.30;;;;;;;7.76;82.02;99062.41;5138933;27;20138;-70
2023/04/21 02:48:22;;;;;;;4.57;2.30;;;;;;;7.86;82.91;99061.13;5138954;28;20057;-67
2023/04/21 02:50:48;;;;;;;3.10;2.65;;;;;;;7.76;82.25;99063.22;5139233;27;20047;-70
2023/04/21 02:53:15;;;;;;;3.72;2.15;;;;;;;7.74;80.72;99061.97;5138668;28;20108;-63
2023/04/21 02:55:41;;;;;;;3.67;2.30;;;;;;;7.85;80.82;99063.06;5139051;28;20144;-65
2023/04/21 02:58:07;;;;;;;4.72;2.20;;;;;;;7.82;80.07;99057.50;5138753;28;20157;-64
2023/04/21 03:00:33;;;;;;;7.45;2.28;;;;;;;8.07;78.92;99063.63;5139134;28;20134;-65
2023/04/21 03:02:58;;;;;;;5.28;2.60;;;;;;;7.77;78.99;99064.81;5138606;28;20456;-68
2023/04/21 03:05:25;;;;;;;5.57;2.17;;;;;;;7.93;78.23;99064.84;5138987;27;20141;-70
2023/04/21 03:07:51;;;;;;;5.53;2.38;;;;;;;7.84;79.60;99066.16;5138797;27;20065;-68
2023/04/21 03:10:18;;;;;;;6.90;2.53;;;;;;;7.88;78.80;99067.81;5138756;28;20415;-69
2023/04/21 03:12:44;;;;;;;3.50;2.42;;;;;;;8.09;75.39;99074.97;5138682;27;20138;-67
2023/04/21 03:15:11;;;;;;;7.15;2.45;;;;;;;7.99;76.88;99068.88;5138858;27;20134;-63
2023/04/21 03:17:37;;;;;;;4.50;2.10;;;;;;;7.99;76.66;99074.34;5138883;27;20113;-65
2023/04/21 03:20:05;;;;;;;2.60;2.13;;;;;;;7.93;76.80;99070.31;5139073;27;20052;-66
2023/04/21 03:22:32;;;;;;;6.72;2.20;;;;;;;7.83;77.72;99070.81;5140135;28;20461;-63
2023/04/21 03:24:58;;;;;;;2.10;1.88;;;;;;;8.23;75.49;99075.34;5139501;28;20150;-70
2023/04/21 03:27:24;;;;;;;3.70;2.20;;;;;;;8.04;77.65;99078.00;5138677;28;20142;-68
2023/04/21 03:29:50;;;;;;;3.35;2.05;;;;;;;8.10;75.37;99077.38;5138108;28;20092;-70
2023/04/21 03:32:16;;;;;;;3.47;2.15;;;;;;;8.36;74.49;99081.53;5138504;28;20192;-67
2023/04/21 03:34:42;;;;;;;7.60;1.67;;;;;;;9.00;71.76;99083.13;5137926;27;20196;-64
2023/04/21 03:37:08;;;;;;;5.03;2.30;;;;;;;9.62;68.76;99085.97;5137895;28;20425;-64
2023/04/21 03:39:34;;;;;;;4.10;2.60;;;;;;;9.90;67.08;99089.28;5138224;28;20141;-64
2023/04/21 03:42:00;;;;;;;2.90;2.20;;;;;;;10.48;64.92;99093.09;5137914;28;20138;-65
2023/04/21 03:44:27;;;;;;;2.53;1.83;;;;;;;10.85;65.02;99085.06;5138198;28;20057;-67
2023/04/21 03:46:53;;;;;;;6.45;2.10;;;;;;;10.84;62.55;99089.75;5137989;28;20046;-70
2023/04/21 03:49:19;;;;;;;3.42;1.90;;;;;;;11.04;60.99;99095.16;5138204;28;20130;-68
2023/04/21 03:51:45;;;;;;;3.83;2.10;;;;;;;11.59;59.84;99084.50;5137821;27;20051;-64
2023/04/21 03:54:11;;;;;;;3.08;2.60;;;;;;;11.58;59.76;99085.69;5137797;27;20057;-65
2023/04/21 03:56:38;;;;;;;3.25;1.80;;;;;;;12.10;58.87;99096.91;5136932;27;20107;-71
2023/04/21 03:59:04;;;;;;;6.72;2.42;;;;;;;12.65;58.36;99097.81;5138072;28;20188;-71
2023/04/21 04:01:30;;;;;;;3.00;2.20;;;;;;;12.87;57.75;99096.03;5137676;28;20043;-65
2023/04/21 04:03:56;;;;;;;3.60;1.85;;;;;;;12.79;57.68;99093.59;5138012;28;20495;-63
2023/04/21 04:06:22;;;;;;;2.58;1.88;;;;;;;12.66;57.71;99096.66;5137463;27;20138;-65
2023/04/21 04:08:48;;;;;;;2.75;2.03;;;;;;;12.63;57.17;99099.38;5137515;28;20051;-68
2023/04/21 04:11:14;;;;;;;3.92;2.40;;;;;;;13.08;57.22;99106.41;5137818;28;20139;-68
2023/04/21 04:13:40;;;;;;;7.15;2.40;;;;;;;13.60;56.71;99111.84;5137613;28;20088;-70
2023/04/21 04:16:07;;;;;;;3.20;2.38;;;;;;;13.64;55.35;99105.16;5137722;28;20043;-68
2023/04/21 04:18:32;;;;;;;3.08;2.05;;;;;;;13.94;55.33;99109.63;5137408;28;20051;-63
2023/04/21 04:21:04;;;;;;;3.92;2.50;;;;;;;14.02;53.88;99108.44;5137564;28;20377;-65
2023/04/21 04:23:30;;;;;;;6.20;2.30;;;;;;;14.43;54.23;99115.63;5137279;28;20104;-70
2023/04/21 04:25:56;;;;;;;2.60;1.88;;;;;;;14.56;53.78;99105.81;5137589;28;20055;-72
2023/04/21 04:28:22;;;;;;;3.83;2.03;;;;;;;14.24;54.54;99103.00;5137257;28;20085;-70
2023/04/21 04:30:49;;;;;;;4.47;2.45;;;;;;;14.96;53.40;99101.09;5137683;27;20100;-67
2023/04/21 04:33:15;;;;;;;3.33;2.50;;;;;;;15.36;53.16;99099.88;5137424;28;20089;-64
2023/04/21 04:35:41;;;;;;;7.78;2.40;;;;;;;14.85;52.53;99111.38;5137388;27;20408;-65
2023/04/21 04:38:07;;;;;;;5.15;2.47;;;;;;;14.89;52.83;99104.66;5137306;27;20404;-68
2023/04/21 04:40:33;;;;;;;4.47;2.38;;;;;;;15.68;52.89;99101.75;5136971;28;20486;-69
2023/04/21 04:43:00;;;;;;;3.15;2.30;;;;;;;15.59;52.44;99113.19;5137429;28;20138;-67
2023/04/21 04:45:27;;;;;;;4.40;2.42;;;;;;;15.94;52.07;99104.00;5137080;28;20070;-66
2023/04/21 04:47:54;;;;;;;4.80;2.13;;;;;;;15.40;52.83;99117.22;5137213;28;20062;-65
2023/04/21 04:50:20;;;;;;;3.90;2.22;;;;;;;15.33;52.49;99114.47;5137031;27;20124;-65
2023/04/21 04:52:46;;;;;;;5.07;2.03;;;;;;;15.66;51.99;99115.16;5137287;28;20047;-70
2023/04/21 04:55:13;;;;;;;2.90;2.30;;;;;;;15.31;52.95;99105.78;5136830;28;20130;-67
2023/04/21 04:57:39;;;;;;;6.40;2.50;;;;;;;15.83;52.07;99111.56;5137243;28;20047;-64
2023/04/21 05:00:07;;;;;;;9.70;2.25;;;;;;;16.22;52.11;99113.34;5136822;28;20138;-63
2023/04/21 05:02:33;;;;;;;5.85;2.38;;;;;;;16.50;51.93;99101.31;5136376;28;20444;-60
2023/04/21 05:04:59;;;;;;;7.10;3.47;;;;;;;16.23;51.45;99107.41;5136613;27;20047;-62
2023/04/21 05:07:25;;;;;;;5.68;3.38;;;;;;;17.09;50.67;99108.75;5136783;27;20442;-62
2023/04/21 05:09:51;;;;;;;3.03;2.20;;;;;;;16.97;51.33;99109.28;5140535;27;20055;-61
2023/04/21 05:12:17;;;;;;;5.72;2.33;;;;;;;17.24;50.52;99106.66;5140228;28;20071;-62
2023/04/21 05:14:43;;;;;;;4.85;2.20;;;;;;;17.22;51.64;99101.50;5140403;28;20079;-62
2023/04/21 05:17:09;;;;;;;4.57;2.20;;;;;;;17.35;50.25;99105.34;5139922;28;20093;-65
2023/04/21 05:19:36;;;;;;;6.13;2.45;;;;;;;17.52;50.14;99108.31;5140499;28;20417;-64
2023/04/21 05:22:05;;;;;;;3.33;2.00;;;;;;;17.87;49.76;99105.16;5140002;28;20374;-59
2023/04/21 05:24:31;;;;;;;5.97;2.50;;;;;;;18.57;48.46;99109.34;5140232;28;20323;-57
2023/04/21 05:26:57;;;;;;;3.80;2.30;;;;;;;18.68;48.93;99109.19;5139788;28;20062;-58
2023/04/21 05:29:23;;;;;;;4.72;2.10;;;;;;;18.14;48.26;99109.97;5139840;28;20434;-58
2023/04/21 05:31:48;;;;;;;3.83;2.13;;;;;;;17.73;50.09;99102.53;5139565;28;20078;-59
2023/04/21 05:34:14;;;;;;;4.90;1.95;;;;;;;18.29;48.23;99114.13;5139631;28;20441;-57
2023/04/21 05:36:41;;;;;;;7.63;2.28;;;;;;;17.66;48.49;99102.63;5139818;27;20092;-61
2023/04/21 05:39:07;;;;;;;4.95;2.33;;;;;;;17.18;48.61;99100.75;5139818;28;20047;-59
2023/04/21 05:41:33;;;;;;;2.45;1.92;;;;;;;18.03;48.74;99099.03;5139994;28;20147;-59
2023/04/21 05:44:00;;;;;;;3.10;2.35;;;;;;;17.78;50.57;99101.31;5139414;28;20050;-61
2023/04/21 05:46:26;;;;;;;3.33;2.25;;;;;;;17.80;49.31;99107.25;5139644;28;20054;-57
2023/04/21 05:48:52;;;;;;;2.47;1.95;;;;;;;17.42;48.56;99110.78;5139574;28;20134;-59
2023/04/21 05:51:18;;;;;;;5.57;2.38;;;;;;;17.98;48.07;99093.16;5139543;28;20058;-63
2023/04/21 05:53:45;;;;;;;8.55;2.10;;;;;;;18.81;47.80;99107.41;5139279;28;20055;-61
2023/04/21 05:56:12;;;;;;;4.93;2.50;;;;;;;19.59;47.51;99112.75;5139549;28;20047;-58
2023/04/21 05:58:38;;;;;;;7.15;3.13;;;;;;;19.08;47.22;99106.56;5139081;27;20047;-62
2023/04/21 06:01:05;;;;;;;5.50;2.65;;;;;;;18.13;47.28;99100.09;5139108;27;20130;-58
2023/04/21 06:03:31;;;;;;;7.25;2.25;;;;;;;18.99;47.33;99099.56;5139305;28;20058;-62
2023/04/21 06:05:58;;;;;;;3.45;2.35;;;;;;;18.37;47.28;99102.91;5139224;27;20051;-60
2023/04/21 06:08:24;;;;;;;4.28;2.80;;;;;;;19.20;48.39;99094.84;5139154;28;20412;-61
2023/04/21 06:10:50;;;;;;;2.58;2.22;;;;;;;18.58;47.84;99097.03;5138869;28;20047;-63
2023/04/21 06:13:16;;;;;;;12.95;2.58;;;;;;;18.66;48.80;99097.69;5139199;28;20047;-60
2023/04/21 06:15:42;;;;;;;4.28;1.70;;;;;;;18.87;48.11;99099.38;5138942;28;20138;-60
2023/04/21 06:18:08;;;;;;;4.68;1.90;;;;;;;18.46;46.91;99100.38;5139101;28;20082;-65
2023/04/21 06:20:34;;;;;;;6.88;2.15;;;;;;;19.34;49.15;99099.34;5138225;27;20462;-61
2023/04/21 06:23:00;;;;;;;7.20;3.00;;;;;;;18.09;47.35;99094.59;5139366;28;20047;-64
2023/04/21 06:25:26;;;;;;;6.28;1.83;;;;;;;18.56;47.00;99102.25;5138757;27;20042;-59
2023/04/21 06:27:52;;;;;;;5.68;2.80;;;;;;;18.93;48.18;99100.47;5139270;28;20199;-59
2023/04/21 06:30:18;;;;;;;3.42;1.92;;;;;;;18.26;47.56;99098.31;5138969;28;20058;-56
2023/04/21 06:32:46;;;;;;;4.05;1.98;;;;;;;19.47;47.19;99103.06;5138763;28;20072;-56
2023/04/21 06:35:13;;;;;;;27.60;2.55;;;;;;;18.93;47.69;99106.03;5138976;27;20047;-56
2023/04/21 06:37:39;;;;;;;7.53;2.72;;;;;;;19.08;48.12;99095.44;5140058;28;20428;-57
2023/04/21 06:40:06;;;;;;;7.55;2.20;;;;;;;18.28;47.95;99092.34;5139816;28;20139;-60
2023/04/21 06:42:32;;;;;;;5.38;2.40;;;;;;;18.34;47.74;99096.22;5138646;28;20079;-62
2023/04/21 06:44:58;;;;;;;4.00;2.28;;;;;;;18.74;47.44;99105.53;5139071;27;20053;-69
2023/04/21 06:47:25;;;;;;;14.85;2.90;;;;;;;18.61;47.29;99087.88;5138657;27;20066;-64
2023/04/21 06:49:51;;;;;;;4.95;1.80;;;;;;;18.92;48.14;99096.13;5139112;28;20195;-66
2023/04/21 06:52:17;;;;;;;7.70;2.95;;;;;;;19.04;47.17;99095.50;5138572;28;20051;-60
2023/04/21 06:54:43;;;;;;;9.10;2.20;;;;;;;18.81;47.24;99087.97;5139247;28;20053;-55
2023/04/21 06:57:08;;;;;;;4.00;1.70;;;;;;;19.26;46.71;99104.25;5138306;28;20054;-55
2023/04/21 06:59:34;;;;;;;8.90;2.70;;;;;;;19.22;48.08;99098.75;5138670;28;20088;-60
2023/04/21 07:02:00;;;;;;;3.40;1.83;;;;;;;19.73;46.16;99099.41;5138585;28;20292;-60
2023/04/21 07:04:30;;;;;;;16.17;3.33;;;;;;;19.78;46.73;99094.53;5138332;28;20336;-68
2023/04/21 07:06:56;;;;;;;4.32;1.75;;;;;;;20.01;46.14;99085.31;5138387;27;20211;-66
2023/04/21 07:09:22;;;;;;;2.40;1.85;;;;;;;20.57;46.14;99090.84;5138242;28;20137;-58
2023/04/21 07:11:48;;;;;;;7.25;1.90;;;;;;;21.12;45.50;99100.19;5138500;28;20320;-57
2023/04/21 07:14:14;;;;;;;1.90;1.75;;;;;;;20.36;45.29;99083.72;5138106;28;20393;-62
2023/04/21 07:16:40;;;;;;;6.25;1.65;;;;;;;20.74;44.89;99086.03;5138351;27;20043;-65
2023/04/21 07:19:06;;;;;;;6.03;2.20;;;;;;;21.43;44.66;99092.25;5138199;27;20387;-76
2023/04/21 07:21:35;;;;;;;3.03;1.60;;;;;;;19.71;43.74;99096.25;5139260;28;20054;-64
2023/04/21 07:24:01;;;;;;;9.25;2.38;;;;;;;20.72;45.22;99100.41;5138240;28;20054;-61
2023/04/21 07:26:27;;;;;;;15.30;1.98;;;;;;;20.31;44.88;99070.31;5138415;28;20146;-67
2023/04/21 07:28:54;;;;;;;6.70;2.83;;;;;;;20.84;44.86;99087.78;5137963;27;20366;-68
2023/04/21 07:31:20;;;;;;;1.70;1.55;;;;;;;20.03;44.23;99088.47;5136956;27;20062;-63
2023/04/21 07:33:46;;;;;;;4.60;1.80;;;;;;;19.95;44.33;99079.47;5139266;27;20047;-66
2023/04/21 07:36:12;;;;;;;2.22;1.75;;;;;;;19.84;44.71;99085.25;5138100;27;20051;-66
2023/04/21 07:38:42;;;;;;;5.05;1.58;;;;;;;20.38;44.06;99076.50;5138002;28;20139;-69
2023/04/21 07:41:08;;;;;;;3.45;2.00;;;;;;;20.08;43.43;99066.47;5137642;28;20090;-68
2023/04/21 07:43:34;;;;;;;8.48;2.25;;;;;;;19.44;43.94;99078.91;5138083;28;20134;-57
2023/04/21 07:46:00;;;;;;;1.75;1.55;;;;;;;18.59;43.94;99073.59;5137675;28;20107;-63
2023/04/21 07:48:26;;;;;;;2.22;1.50;;;;;;;19.99;43.88;99066.25;5137886;28;20146;-66
2023/04/21 07:50:52;;;;;;;2.95;1.45;;;;;;;20.97;44.86;99066.34;5137632;28;20488;-69
2023/04/21 07:53:18;;;;;;;10.68;1.95;;;;;;;20.97;43.88;99074.72;5137871;28;20043;-61
2023/04/21 07:55:44;;;;;;;3.63;2.35;;;;;;;19.63;42.37;99083.72;5137266;27;20054;-58
2023/04/21 07:58:10;;;;;;;2.00;1.60;;;;;;;19.85;43.36;99070.13;5137559;28;20051;-57
2023/04/21 08:00:36;;;;;;;9.55;1.75;;;;;;;19.84;42.83;99071.34;5137582;28;20203;-60
2023/04/21 08:03:02;;;;;;;2.55;1.88;;;;;;;20.01;43.95;99060.28;5137448;28;20051;-66
2023/04/21 08:05:28;;;;;;;6.38;2.03;;;;;;;19.73;42.94;99065.25;5137362;27;20321;-69
2023/04/21 08:07:54;;;;;;;7.13;1.63;;;;;;;19.57;43.46;99071.50;5137052;28;20050;-58
2023/04/21 08:10:20;;;;;;;7.35;1.75;;;;;;;19.85;43.58;99058.22;5137153;28;20081;-65
2023/04/21 08:12:47;;;;;;;2.63;1.60;;;;;;;20.91;42.22;99062.53;5136924;28;20134;-68
2023/04/21 08:15:13;;;;;;;2.88;1.90;;;;;;;21.06;42.42;99051.78;5137255;28;20051;-65
2023/04/21 08:17:39;;;;;;;6.05;2.15;;;;;;;20.98;42.91;99047.63;5136608;27;20072;-63
2023/04/21 08:20:06;;;;;;;4.45;1.88;;;;;;;20.84;42.99;99059.91;5137206;27;20051;-60
2023/04/21 08:22:32;;;;;;;1.42;1.33;;;;;;;20.92;42.77;99047.34;5136905;28;20111;-62
2023/04/21 08:24:58;;;;;;;2.13;1.60;;;;;;;21.03;42.74;99052.69;5137351;27;20057;-56
2023/04/21 08:27:24;;;;;;;7.05;2.08;;;;;;;21.26;43.42;99041.28;5137115;27;20075;-58
2023/04/21 08:29:51;;;;;;;1.95;1.60;;;;;;;21.40;42.90;99044.94;5136709;28;20374;-63
2023/04/21 08:32:22;;;;;;;2.83;1.55;;;;;;;20.79;43.22;99024.22;5137105;28;20047;-63
2023/04/21 08:34:48;;;;;;;8.65;4.60;;;;;;;21.17;44.22;99023.63;5136945;27;20339;-67
2023/04/21 08:37:14;;;;;;;6.60;2.33;;;;;;;21.19;43.61;99027.53;5137048;28;20074;-63
2023/04/21 08:39:40;;;;;;;4.10;1.60;;;;;;;21.76;42.45;99042.69;5136649;28;20048;-61
2023/04/21 08:42:07;;;;;;;3.20;2.00;;;;;;;22.30;42.86;99027.88;5136984;27;20054;-59
2023/04/21 08:44:33;;;;;;;6.05;1.90;;;;;;;21.66;44.22;99034.59;5140269;28;20091;-61
2023/04/21 08:47:02;;;;;;;2.88;1.70;;;;;;;22.12;43.51;99032.44;5140807;27;20051;-61
2023/04/21 08:49:29;;;;;;;3.42;1.80;;;;;;;22.38;42.52;99025.63;5140072;28;20047;-59
2023/04/21 08:51:55;;;;;;;3.35;2.20;;;;;;;21.26;42.57;99046.06;5140663;28;20105;-65
2023/04/21 08:54:21;;;;;;;5.55;1.90;;;;;;;21.80;42.47;99034.97;5140365;27;20137;-65
2023/04/21 08:56:47;;;;;;;1.70;1.60;;;;;;;19.93;42.27;99026.28;5140244;28;20051;-61
2023/04/21 08:59:13;;;;;;;4.07;1.50;;;;;;;19.99;42.65;99030.09;5140354;27;20146;-62
2023/04/21 09:02:07;;;;;;;3.28;1.52;;;;;;;20.26;42.78;99034.66;5140055;28;20054;-64
2023/04/21 09:04:33;;;;;;;2.40;1.80;;;;;;;20.42;43.10;99020.72;5140338;27;20133;-63
2023/04/21 09:06:58;;;;;;;4.93;1.33;;;;;;;20.34;43.78;99017.34;5140051;27;20054;-64
2023/04/21 09:09:25;;;;;;;1.90;1.50;;;;;;;19.67;43.65;99022.47;5140499;28;20513;-66
2023/04/21 09:11:54;;;;;;;1.50;1.35;;;;;;;20.08;44.25;99026.72;5140058;28;20047;-58
2023/04/21 09:14:20;;;;;;;3.03;1.50;;;;;;;19.01;44.54;99021.34;5140542;27;20047;-65
2023/04/21 09:16:59;;;;;;;1.70;1.60;;;;;;;19.11;44.12;99012.03;5139690;28;20051;-64
2023/04/21 09:19:26;;;;;;;2.72;1.63;;;;;;;19.04;44.52;98996.28;5140149;27;20150;-58
2023/04/21 09:21:52;;;;;;;3.38;1.40;;;;;;;19.82;44.69;99006.22;5139939;28;20361;-62
2023/04/21 09:24:19;;;;;;;1.98;1.67;;;;;;;19.79;43.87;99018.22;5139992;28;20051;-65
2023/04/21 09:26:49;;;;;;;4.82;1.70;;;;;;;20.56;43.59;98998.16;5140167;28;20059;-61
2023/04/21 09:29:15;;;;;;;1.48;1.30;;;;;;;20.24;43.74;99004.47;5139717;28;20061;-60
2023/04/21 09:31:43;;;;;;;1.20;1.08;;;;;;;19.30;46.63;98993.03;5140120;28;20138;-58
2023/04/21 09:34:18;;;;;;;4.32;1.40;;;;;;;19.30;48.58;99002.13;5139846;27;20057;-61
2023/04/21 09:36:45;;;;;;;2.03;1.30;;;;;;;19.84;48.13;98995.47;5140242;27;20043;-61
2023/04/21 09:39:11;;;;;;;1.83;1.58;;;;;;;20.33;47.92;98999.09;5139669;27;20349;-60
2023/04/21 09:41:37;;;;;;;2.97;1.80;;;;;;;20.09;47.85;98984.56;5139687;28;20090;-60
2023/04/21 09:44:03;;;;;;;2.30;1.45;;;;;;;20.08;49.36;98971.84;5140073;28;20119;-64
2023/04/21 09:46:32;;;;;;;2.38;1.33;;;;;;;20.78;47.69;98978.88;5140825;27;20055;-62
2023/04/21 09:49:00;;;;;;;2.35;1.38;;;;;;;20.41;48.19;98961.50;5140209;27;20047;-60
2023/04/21 09:51:26;;;;;;;1.52;1.25;;;;;;;20.55;48.72;98976.28;5139761;28;20055;-53
2023/04/21 09:53:57;;;;;;;6.20;1.20;;;;;;;20.43;49.05;98975.75;5139538;27;20054;-59
2023/04/21 09:56:25;;;;;;;4.03;1.30;;;;;;;19.72;49.38;98975.44;5138972;28;20134;-57
2023/04/21 09:58:53;;;;;;;4.30;1.20;;;;;;;19.88;49.92;98966.34;5139653;27;20112;-60
2023/04/21 10:01:19;;;;;;;2.67;1.40;;;;;;;20.11;49.33;98965.41;5139246;28;20058;-56
2023/04/21 10:03:48;;;;;;;4.75;1.40;;;;;;;20.50;49.09;98949.75;5139604;27;20488;-60
2023/04/21 10:06:14;;;;;;;12.80;1.90;;;;;;;20.41;50.49;98960.72;5138821;27;20096;-64
2023/04/21 10:08:42;;;;;;;1.60;1.15;;;;;;;19.77;50.90;98943.56;5138963;28;20195;-59
2023/04/21 10:11:09;;;;;;;1.52;1.30;;;;;;;20.30;51.15;98954.63;5139240;28;20083;-62
2023/04/21 10:13:37;;;;;;;2.50;1.30;;;;;;;20.32;51.63;98938.25;5138995;28;21228;-63
2023/04/21 10:16:06;;;;;;;2.35;1.20;;;;;;;20.62;51.28;98937.91;5139640;27;20042;-57
2023/04/21 10:18:34;;;;;;;2.40;2.05;;;;;;;20.62;49.93;98932.31;5138992;28;20054;-63
2023/04/21 10:21:02;;;;;;;7.47;1.33;;;;;;;20.66;51.23;98926.69;5139056;28;20107;-65
2023/04/21 10:23:35;;;;;;;5.97;1.48;;;;;;;20.78;51.39;98914.78;5138459;28;20047;-61
2023/04/21 10:26:07;;;;;;;8.80;1.60;;;;;;;20.65;51.77;98917.53;5139012;28;20463;-60
2023/04/21 10:28:40;;;;;;;4.03;1.58;;;;;;;20.63;51.17;98924.78;5138564;28;20504;-60
2023/04/21 10:31:25;;;;;;;3.63;1.63;;;;;;;20.86;51.32;98918.19;5138423;27;20104;-61
2023/04/21 10:34:16;;;;;;;7.70;1.55;;;;;;;21.08;51.24;98927.47;5138571;27;20051;-57
2023/04/21 10:36:48;;;;;;;4.88;1.30;;;;;;;20.76;51.62;98919.22;5138216;27;20160;-62
2023/04/21 10:39:25;;;;;;;4.13;1.63;;;;;;;21.29;51.12;98914.13;5138537;27;20047;-58
2023/04/21 10:41:54;;;;;;;2.38;1.23;;;;;;;21.25;50.74;98917.03;5138447;28;20051;-58
2023/04/21 10:44:21;;;;;;;3.00;1.33;;;;;;;21.23;52.53;98916.72;5138806;28;20134;-62
2023/04/21 10:46:48;;;;;;;2.08;1.40;;;;;;;20.25;51.62;98899.47;5138256;28;20063;-57
2023/04/21 10:49:21;;;;;;;1.45;1.35;;;;;;;21.43;50.33;98905.41;5138200;28;20420;-55
2023/04/21 10:52:04;;;;;;;5.47;1.20;;;;;;;20.88;52.40;98893.44;5138459;28;20513;-57
2023/04/21 10:54:40;;;;;;;3.92;1.52;;;;;;;21.48;52.26;98890.88;5138147;28;20412;-54
2023/04/21 10:57:08;;;;;;;4.35;1.60;;;;;;;21.38;51.89;98892.78;5138414;28;20046;-60
2023/04/21 10:59:35;;;;;;;3.60;1.27;;;;;;;20.30;52.88;98882.25;5138170;28;20138;-58
2023/04/21 11:02:01;;;;;;;2.13;1.10;;;;;;;19.32;53.15;98887.75;5138529;28;20043;-58
2023/04/21 11:04:27;;;;;;;4.25;1.10;;;;;;;19.43;54.02;98886.31;5138308;28;20365;-62
2023/04/21 11:07:05;;;;;;;2.05;1.40;;;;;;;19.44;54.79;98876.75;5138483;27;20051;-57
2023/04/21 11:09:31;;;;;;;1.35;1.02;;;;;;;18.63;54.78;98866.13;5138489;27;20059;-56
2023/04/21 11:11:58;;;;;;;2.75;1.38;;;;;;;18.95;55.43;98876.59;5138277;27;20456;-57
2023/04/21 11:14:24;;;;;;;3.92;1.48;;;;;;;18.96;56.65;98866.28;5138197;28;20047;-57
2023/04/21 11:16:51;;;;;;;2.70;1.60;;;;;;;18.86;56.37;98856.16;5137774;27;20138;-60
2023/04/21 11:19:17;;;;;;;3.58;1.65;;;;;;;18.48;56.41;98859.28;5138243;28;20138;-62
2023/04/21 11:21:47;;;;;;;1.17;1.10;;;;;;;18.66;56.78;98870.81;5138014;27;20385;-60
2023/04/21 11:24:13;;;;;;;3.45;1.33;;;;;;;17.80;58.00;98866.03;5138128;28;20133;-60
2023/04/21 11:26:41;;;;;;;2.15;1.10;;;;;;;18.00;57.79;98869.66;5137640;28;20090;-59
2023/04/21 11:29:08;;;;;;;1.25;1.13;;;;;;;18.25;58.70;98858.09;5137997;28;20047;-56
2023/04/21 11:31:35;;;;;;;1.50;1.00;;;;;;;18.25;58.22;98849.78;5137369;28;20078;-53
2023/04/21 11:34:04;;;;;;;6.05;1.10;;;;;;;18.32;58.99;98852.41;5138036;27;20074;-59
2023/04/21 11:36:31;;;;;;;3.25;1.00;;;;;;;17.90;59.30;98850.41;5137273;27;20047;-62